createdAt,value
2022-10-22T00:01:28.367Z,8.69
2022-10-22T00:03:55.253Z,8.72
2022-10-22T00:06:21.929Z,8.72
2022-10-22T00:08:48.708Z,8.69
2022-10-22T00:11:17.167Z,8.30
2022-10-22T00:13:44.278Z,8.43
2022-10-22T00:16:11.687Z,8.47
2022-10-22T00:18:39.323Z,8.47
2022-10-22T00:21:06.555Z,8.38
2022-10-22T00:23:34.025Z,8.27
2022-10-22T00:26:00.603Z,8.21
2022-10-22T00:28:27.391Z,8.14
2022-10-22T00:30:59.374Z,8.17
2022-10-22T00:33:26.604Z,8.15
2022-10-22T00:35:53.496Z,8.13
2022-10-22T00:38:20.423Z,8.01
2022-10-22T00:40:48.142Z,8.15
2022-10-22T00:43:17.030Z,8.08
2022-10-22T00:45:44.153Z,7.95
2022-10-22T00:48:13.431Z,8.11
2022-10-22T00:50:48.995Z,8.13
2022-10-22T00:53:20.653Z,8.16
2022-10-22T00:55:51.452Z,8.14
2022-10-22T00:58:18.858Z,8.14
2022-10-22T01:00:45.508Z,8.22
2022-10-22T01:03:12.194Z,8.21
2022-10-22T01:05:47.122Z,8.24
2022-10-22T01:08:26.683Z,8.14
2022-10-22T01:11:16.972Z,8.14
2022-10-22T01:14:04.679Z,8.17
2022-10-22T01:16:54.784Z,8.22
2022-10-22T01:19:43.473Z,8.04
2022-10-22T01:22:51.066Z,8.15
2022-10-22T01:25:25.029Z,8.08
2022-10-22T01:28:19.017Z,7.95
2022-10-22T01:30:46.709Z,8.02
2022-10-22T01:33:18.621Z,8.06
2022-10-22T01:35:45.981Z,8.10
2022-10-22T01:38:21.032Z,8.09
2022-10-22T01:40:48.443Z,8.14
2022-10-22T01:43:15.246Z,8.13
2022-10-22T01:45:50.206Z,8.13
2022-10-22T01:49:00.722Z,8.04
2022-10-22T01:51:39.682Z,8.17
2022-10-22T01:54:32.492Z,8.12
2022-10-22T01:57:13.621Z,8.08
2022-10-22T01:59:56.986Z,7.93
2022-10-22T02:02:29.737Z,8.04
2022-10-22T02:05:07.932Z,7.91
2022-10-22T02:07:41.535Z,8.02
2022-10-22T02:10:10.130Z,8.00
2022-10-22T02:12:39.604Z,7.90
2022-10-22T02:15:08.253Z,7.97
2022-10-22T02:17:38.587Z,7.95
2022-10-22T02:20:18.167Z,7.87
2022-10-22T02:22:45.207Z,7.97
2022-10-22T02:25:12.735Z,7.75
2022-10-22T02:27:57.506Z,7.71
2022-10-22T02:30:24.751Z,7.79
2022-10-22T02:32:57.484Z,7.84
2022-10-22T02:35:27.832Z,7.82
2022-10-22T02:37:56.063Z,7.87
2022-10-22T02:40:23.468Z,7.94
2022-10-22T02:42:51.008Z,7.88
2022-10-22T02:45:19.352Z,7.75
2022-10-22T02:47:46.259Z,7.81
2022-10-22T02:50:13.160Z,7.86
2022-10-22T02:52:39.917Z,7.86
2022-10-22T02:55:07.441Z,7.89
2022-10-22T02:57:34.015Z,7.91
2022-10-22T03:00:00.569Z,8.06
2022-10-22T03:02:27.109Z,7.92
2022-10-22T03:04:53.650Z,7.79
2022-10-22T03:07:20.201Z,7.75
2022-10-22T03:09:47.063Z,7.61
2022-10-22T03:12:13.853Z,7.49
2022-10-22T03:14:40.422Z,7.41
2022-10-22T03:17:07.086Z,7.10
2022-10-22T03:19:33.645Z,7.06
2022-10-22T03:22:06.042Z,7.05
2022-10-22T03:24:38.804Z,6.71
2022-10-22T03:27:05.575Z,6.81
2022-10-22T03:29:35.981Z,6.63
2022-10-22T03:32:02.590Z,6.55
2022-10-22T03:34:29.208Z,6.49
2022-10-22T03:36:59.429Z,6.19
2022-10-22T03:39:27.140Z,6.30
2022-10-22T03:41:53.908Z,6.27
2022-10-22T03:44:22.583Z,6.28
2022-10-22T03:46:49.274Z,6.23
2022-10-22T03:49:15.849Z,6.25
2022-10-22T03:51:42.423Z,6.24
2022-10-22T03:54:09.005Z,6.25
2022-10-22T03:56:35.621Z,6.30
2022-10-22T03:59:02.440Z,6.40
2022-10-22T04:01:30.481Z,6.36
2022-10-22T04:03:58.309Z,6.40
2022-10-22T04:06:26.005Z,6.42
2022-10-22T04:08:52.613Z,6.13
2022-10-22T04:11:19.233Z,6.11
2022-10-22T04:13:45.794Z,6.16
2022-10-22T04:16:14.184Z,6.15
2022-10-22T04:18:41.691Z,5.83
2022-10-22T04:21:09.956Z,5.95
2022-10-22T04:23:37.260Z,6.04
2022-10-22T04:26:06.964Z,5.88
2022-10-22T04:28:35.076Z,5.98
2022-10-22T04:31:08.189Z,5.90
2022-10-22T04:33:34.808Z,6.04
2022-10-22T04:36:08.772Z,6.06
2022-10-22T04:38:35.385Z,5.86
2022-10-22T04:41:14.260Z,5.96
2022-10-22T04:43:41.821Z,6.02
2022-10-22T04:46:09.720Z,6.04
2022-10-22T04:48:37.174Z,6.05
2022-10-22T04:51:05.634Z,6.11
2022-10-22T04:53:33.178Z,6.11
2022-10-22T04:56:09.054Z,6.20
2022-10-22T04:58:35.724Z,6.18
2022-10-22T05:01:09.697Z,6.06
2022-10-22T05:03:36.348Z,5.91
2022-10-22T05:06:03.089Z,6.01
2022-10-22T05:08:29.707Z,6.03
2022-10-22T05:10:56.236Z,6.02
2022-10-22T05:13:22.836Z,5.97
2022-10-22T05:15:49.403Z,5.94
2022-10-22T05:18:18.982Z,5.74
2022-10-22T05:20:48.487Z,5.85
2022-10-22T05:23:15.032Z,5.93
2022-10-22T05:25:41.540Z,5.99
2022-10-22T05:28:08.095Z,6.05
2022-10-22T05:30:34.647Z,6.09
2022-10-22T05:33:01.211Z,6.19
2022-10-22T05:35:27.849Z,6.33
2022-10-22T05:37:54.409Z,6.46
2022-10-22T05:40:30.545Z,6.36
2022-10-22T05:42:58.814Z,6.65
2022-10-22T05:45:25.358Z,6.79
2022-10-22T05:47:51.893Z,6.90
2022-10-22T05:50:18.426Z,6.95
2022-10-22T05:52:44.966Z,7.06
2022-10-22T05:55:11.483Z,7.23
2022-10-22T05:57:39.854Z,7.39
2022-10-22T06:00:07.185Z,7.52
2022-10-22T06:02:33.824Z,7.69
2022-10-22T06:05:00.428Z,7.88
2022-10-22T06:07:27.044Z,8.06
2022-10-22T06:09:53.882Z,8.09
2022-10-22T06:12:20.651Z,8.34
2022-10-22T06:14:47.220Z,8.50
2022-10-22T06:17:13.771Z,8.64
2022-10-22T06:19:40.312Z,8.45
2022-10-22T06:22:06.868Z,8.42
2022-10-22T06:24:33.669Z,8.67
2022-10-22T06:27:00.266Z,8.72
2022-10-22T06:29:26.807Z,8.96
2022-10-22T06:31:53.345Z,9.13
2022-10-22T06:34:20.153Z,9.34
2022-10-22T06:36:47.504Z,9.36
2022-10-22T06:39:16.590Z,9.61
2022-10-22T06:41:43.256Z,9.82
2022-10-22T06:44:15.773Z,10.01
2022-10-22T06:46:43.628Z,10.14
2022-10-22T06:49:14.133Z,10.05
2022-10-22T06:51:40.872Z,9.96
2022-10-22T06:54:07.502Z,10.06
2022-10-22T06:56:34.120Z,10.47
2022-10-22T06:59:00.672Z,10.81
2022-10-22T07:01:30.424Z,10.96
2022-10-22T07:03:57.977Z,11.24
2022-10-22T07:06:26.736Z,11.17
2022-10-22T07:08:58.456Z,11.69
2022-10-22T07:11:28.091Z,11.69
2022-10-22T07:13:56.310Z,11.59
2022-10-22T07:16:25.725Z,11.85
2022-10-22T07:18:54.953Z,12.17
2022-10-22T07:21:22.712Z,12.04
2022-10-22T07:23:49.311Z,12.21
2022-10-22T07:26:17.228Z,12.43
2022-10-22T07:28:44.111Z,12.12
2022-10-22T07:31:12.320Z,11.85
2022-10-22T07:33:39.217Z,11.71
2022-10-22T07:36:08.928Z,11.87
2022-10-22T07:38:41.446Z,11.99
2022-10-22T07:41:08.054Z,11.83
2022-10-22T07:43:34.666Z,11.84
2022-10-22T07:46:02.788Z,11.80
2022-10-22T07:48:29.725Z,11.87
2022-10-22T07:50:58.294Z,12.09
2022-10-22T07:53:24.923Z,12.03
2022-10-22T07:55:52.142Z,12.21
2022-10-22T07:58:20.354Z,12.10
2022-10-22T08:00:47.416Z,12.13
2022-10-22T08:03:15.373Z,12.27
2022-10-22T08:05:43.841Z,12.53
2022-10-22T08:08:11.812Z,12.76
2022-10-22T08:10:38.767Z,13.07
2022-10-22T08:13:06.682Z,13.14
2022-10-22T08:15:33.320Z,13.43
2022-10-22T08:18:02.919Z,13.68
2022-10-22T08:20:29.520Z,14.20
2022-10-22T08:22:56.120Z,14.61
2022-10-22T08:25:22.837Z,14.30
2022-10-22T08:27:49.538Z,14.39
2022-10-22T08:30:17.228Z,14.90
2022-10-22T08:32:43.948Z,14.99
2022-10-22T08:35:14.107Z,15.73
2022-10-22T08:37:43.729Z,16.21
2022-10-22T08:40:28.650Z,16.29
2022-10-22T08:43:23.586Z,16.70
2022-10-22T08:45:50.173Z,16.81
2022-10-22T08:48:35.280Z,16.16
2022-10-22T08:51:01.841Z,16.79
2022-10-22T08:53:44.088Z,16.79
2022-10-22T08:56:10.645Z,16.81
2022-10-22T08:58:57.072Z,16.07
2022-10-22T09:01:39.535Z,15.81
2022-10-22T09:04:06.277Z,16.34
2022-10-22T09:06:35.425Z,16.45
2022-10-22T09:09:09.791Z,16.01
2022-10-22T09:11:39.445Z,15.64
2022-10-22T09:14:06.956Z,15.85
2022-10-22T09:16:43.065Z,15.84
2022-10-22T09:19:33.958Z,16.11
2022-10-22T09:22:03.395Z,15.34
2022-10-22T09:24:39.193Z,15.14
2022-10-22T09:27:16.570Z,15.53
2022-10-22T09:29:44.350Z,15.10
2022-10-22T09:32:11.188Z,15.41
2022-10-22T09:34:37.911Z,15.63
2022-10-22T09:37:09.852Z,15.59
2022-10-22T09:39:44.960Z,15.82
2022-10-22T09:42:15.831Z,15.68
2022-10-22T09:44:46.355Z,15.81
2022-10-22T09:48:00.425Z,15.46
2022-10-22T09:50:45.321Z,15.84
2022-10-22T09:53:17.729Z,16.18
2022-10-22T09:55:49.217Z,15.28
2022-10-22T09:58:17.661Z,15.46
2022-10-22T10:00:47.434Z,15.85
2022-10-22T10:03:33.331Z,16.09
2022-10-22T10:06:04.824Z,16.17
2022-10-22T10:08:33.226Z,16.51
2022-10-22T10:11:05.890Z,16.85
2022-10-22T10:13:51.285Z,16.20
2022-10-22T10:16:27.585Z,16.11
2022-10-22T10:19:00.009Z,16.58
2022-10-22T10:22:03.664Z,16.40
2022-10-22T10:24:39.160Z,16.21
2022-10-22T10:27:15.082Z,16.36
2022-10-22T10:30:11.722Z,16.48
2022-10-22T10:32:56.467Z,16.20
2022-10-22T10:35:40.579Z,16.48
2022-10-22T10:38:16.293Z,17.11
2022-10-22T10:40:56.963Z,16.99
2022-10-22T10:43:32.882Z,17.32
2022-10-22T10:46:09.331Z,17.31
2022-10-22T10:48:38.656Z,16.88
2022-10-22T10:51:17.282Z,17.37
2022-10-22T10:53:43.770Z,17.03
2022-10-22T10:56:16.566Z,17.32
2022-10-22T10:59:09.324Z,17.54
2022-10-22T11:01:54.113Z,17.21
2022-10-22T11:04:50.780Z,17.01
2022-10-22T11:07:34.247Z,16.88
2022-10-22T11:10:28.262Z,16.74
2022-10-22T11:13:02.225Z,15.96
2022-10-22T11:15:34.262Z,16.47
2022-10-22T11:18:15.991Z,16.36
2022-10-22T11:21:03.998Z,16.31
2022-10-22T11:23:38.082Z,16.24
2022-10-22T11:26:11.546Z,15.46
2022-10-22T11:28:45.073Z,16.01
2022-10-22T11:31:17.084Z,16.35
2022-10-22T11:34:33.107Z,16.16
2022-10-22T11:37:02.994Z,16.34
2022-10-22T11:39:35.509Z,16.12
2022-10-22T11:42:06.197Z,16.33
2022-10-22T11:44:49.042Z,16.67
2022-10-22T11:47:24.857Z,16.98
2022-10-22T11:49:59.743Z,17.25
2022-10-22T11:52:55.120Z,16.42
2022-10-22T11:55:45.896Z,16.66
2022-10-22T11:58:27.830Z,16.68
2022-10-22T12:01:25.980Z,17.39
2022-10-22T12:03:58.741Z,16.97
2022-10-22T12:06:26.990Z,17.47
2022-10-22T12:08:53.588Z,17.03
2022-10-22T12:11:20.112Z,17.09
2022-10-22T12:13:53.033Z,17.21
2022-10-22T12:16:32.280Z,17.50
2022-10-22T12:19:10.445Z,18.04
2022-10-22T12:21:39.419Z,18.18
2022-10-22T12:24:07.335Z,17.27
2022-10-22T12:26:35.000Z,17.33
2022-10-22T12:29:06.365Z,17.79
2022-10-22T12:31:37.880Z,17.45
2022-10-22T12:34:04.727Z,17.64
2022-10-22T12:36:33.835Z,17.90
2022-10-22T12:39:02.159Z,17.58
2022-10-22T12:41:39.835Z,17.83
2022-10-22T12:44:06.488Z,17.43
2022-10-22T12:46:35.486Z,17.55
2022-10-22T12:49:05.410Z,17.15
2022-10-22T12:51:39.152Z,17.22
2022-10-22T12:54:33.082Z,16.68
2022-10-22T12:57:00.514Z,16.32
2022-10-22T12:59:32.618Z,16.66
2022-10-22T13:01:59.778Z,15.98
2022-10-22T13:04:26.755Z,15.93
2022-10-22T13:07:04.350Z,16.05
2022-10-22T13:09:40.226Z,15.64
2022-10-22T13:12:10.768Z,15.66
2022-10-22T13:14:38.596Z,15.63
2022-10-22T13:17:38.269Z,15.53
2022-10-22T13:20:17.463Z,15.55
2022-10-22T13:23:00.170Z,15.34
2022-10-22T13:25:34.870Z,15.40
2022-10-22T13:28:10.566Z,15.48
2022-10-22T13:30:38.725Z,15.53
2022-10-22T13:33:06.966Z,15.54
2022-10-22T13:35:38.434Z,15.55
2022-10-22T13:38:31.447Z,15.40
2022-10-22T13:40:59.477Z,15.66
2022-10-22T13:43:26.257Z,15.50
2022-10-22T13:45:58.601Z,15.45
2022-10-22T13:48:28.112Z,15.42
2022-10-22T13:50:54.923Z,15.44
2022-10-22T13:53:24.047Z,15.35
2022-10-22T13:55:50.678Z,15.54
2022-10-22T13:58:24.706Z,15.63
2022-10-22T14:01:03.416Z,15.43
2022-10-22T14:03:33.305Z,15.26
2022-10-22T14:06:00.955Z,15.35
2022-10-22T14:08:28.667Z,15.41
2022-10-22T14:10:55.512Z,15.15
2022-10-22T14:13:22.145Z,15.36
2022-10-22T14:15:51.533Z,15.42
2022-10-22T14:18:26.689Z,15.34
2022-10-22T14:21:00.137Z,15.38
2022-10-22T14:23:29.747Z,15.38
2022-10-22T14:25:57.596Z,15.43
2022-10-22T14:28:24.346Z,15.34
2022-10-22T14:30:52.040Z,15.24
2022-10-22T14:33:31.997Z,15.22
2022-10-22T14:36:01.988Z,15.20
2022-10-22T14:38:29.322Z,15.24
2022-10-22T14:40:57.187Z,15.20
2022-10-22T14:43:26.822Z,15.08
2022-10-22T14:45:53.970Z,14.82
2022-10-22T14:48:20.834Z,15.06
2022-10-22T14:50:48.242Z,14.90
2022-10-22T14:53:16.846Z,14.73
2022-10-22T14:55:44.735Z,14.79
2022-10-22T14:58:12.477Z,14.82
2022-10-22T15:00:41.885Z,14.64
2022-10-22T15:03:08.610Z,14.62
2022-10-22T15:05:36.296Z,14.65
2022-10-22T15:08:02.927Z,14.52
2022-10-22T15:10:29.494Z,14.37
2022-10-22T15:12:56.031Z,14.40
2022-10-22T15:15:23.228Z,14.35
2022-10-22T15:17:51.279Z,14.26
2022-10-22T15:20:17.912Z,14.33
2022-10-22T15:22:45.339Z,14.32
2022-10-22T15:25:14.091Z,14.26
2022-10-22T15:27:40.695Z,14.21
2022-10-22T15:30:08.378Z,14.13
2022-10-22T15:32:34.978Z,14.12
2022-10-22T15:35:01.844Z,14.17
2022-10-22T15:37:28.463Z,14.05
2022-10-22T15:39:56.363Z,14.02
2022-10-22T15:42:23.872Z,13.88
2022-10-22T15:44:58.001Z,13.88
2022-10-22T15:47:28.457Z,13.77
2022-10-22T15:49:55.442Z,13.79
2022-10-22T15:52:23.617Z,13.75
2022-10-22T15:54:50.178Z,13.77
2022-10-22T15:57:16.774Z,13.76
2022-10-22T15:59:43.412Z,13.80
2022-10-22T16:02:11.666Z,13.68
2022-10-22T16:04:38.971Z,13.63
2022-10-22T16:07:06.748Z,13.53
2022-10-22T16:09:33.299Z,13.26
2022-10-22T16:11:59.871Z,13.18
2022-10-22T16:14:28.634Z,13.30
2022-10-22T16:16:56.118Z,13.27
2022-10-22T16:19:24.338Z,13.01
2022-10-22T16:21:53.052Z,12.84
2022-10-22T16:24:20.679Z,12.75
2022-10-22T16:26:48.358Z,12.59
2022-10-22T16:29:16.141Z,12.72
2022-10-22T16:31:44.057Z,12.56
2022-10-22T16:34:13.425Z,12.44
2022-10-22T16:36:40.120Z,12.37
2022-10-22T16:39:07.071Z,12.32
2022-10-22T16:41:37.048Z,12.31
2022-10-22T16:44:07.813Z,12.26
2022-10-22T16:46:38.272Z,12.15
2022-10-22T16:49:05.157Z,12.14
2022-10-22T16:51:31.758Z,12.09
2022-10-22T16:53:58.571Z,12.11
2022-10-22T16:56:26.182Z,12.06
2022-10-22T16:58:55.284Z,11.96
2022-10-22T17:01:25.926Z,12.01
2022-10-22T17:03:54.795Z,11.91
2022-10-22T17:06:23.638Z,11.93
2022-10-22T17:08:50.423Z,11.99
2022-10-22T17:11:20.904Z,11.95
2022-10-22T17:13:49.285Z,11.90
2022-10-22T17:16:18.224Z,11.89
2022-10-22T17:21:14.315Z,11.86
2022-10-22T17:23:42.702Z,11.87
2022-10-22T17:26:17.630Z,11.96
2022-10-22T17:28:44.673Z,11.84
2022-10-22T17:31:23.901Z,11.89
2022-10-22T17:33:52.647Z,11.92
2022-10-22T17:36:20.615Z,11.95
2022-10-22T17:38:52.922Z,11.93
2022-10-22T17:41:21.951Z,11.94
2022-10-22T17:43:48.659Z,11.93
2022-10-22T17:46:21.606Z,11.88
2022-10-22T17:48:56.866Z,11.88
2022-10-22T17:51:25.126Z,11.87
2022-10-22T17:53:51.730Z,11.86
2022-10-22T17:56:21.314Z,11.86
2022-10-22T17:58:48.274Z,11.76
2022-10-22T18:01:23.862Z,11.71
2022-10-22T18:03:52.059Z,11.70
2022-10-22T18:06:18.771Z,11.53
2022-10-22T18:08:45.601Z,11.56
2022-10-22T18:11:17.748Z,11.50
2022-10-22T18:13:44.442Z,11.39
2022-10-22T18:16:11.024Z,11.32
2022-10-22T18:18:37.674Z,11.32
2022-10-22T18:21:05.296Z,11.31
2022-10-22T18:23:31.841Z,11.31
2022-10-22T18:25:58.363Z,11.30
2022-10-22T18:28:25.039Z,11.18
2022-10-22T18:30:51.602Z,11.15
2022-10-22T18:33:19.350Z,11.19
2022-10-22T18:35:46.683Z,11.11
2022-10-22T18:38:13.430Z,11.16
2022-10-22T18:40:46.745Z,11.20
2022-10-22T18:43:13.794Z,11.12
2022-10-22T18:45:48.504Z,11.20
2022-10-22T18:48:18.471Z,11.19
2022-10-22T18:50:47.035Z,11.15
2022-10-22T18:53:16.117Z,11.07
2022-10-22T18:55:42.868Z,11.03
2022-10-22T18:58:09.410Z,11.02
2022-10-22T19:00:36.330Z,11.03
2022-10-22T19:03:03.350Z,10.98
2022-10-22T19:05:30.038Z,10.98
2022-10-22T19:07:56.765Z,10.86
2022-10-22T19:10:23.288Z,10.78
2022-10-22T19:12:49.818Z,10.86
2022-10-22T19:15:16.560Z,10.90
2022-10-22T19:17:43.390Z,10.86
2022-10-22T19:20:10.590Z,10.84
2022-10-22T19:22:37.144Z,10.78
2022-10-22T19:25:05.966Z,10.70
2022-10-22T19:27:36.412Z,10.60
2022-10-22T19:30:04.806Z,10.48
2022-10-22T19:32:31.389Z,10.45
2022-10-22T19:34:58.077Z,10.36
2022-10-22T19:37:24.647Z,10.25
2022-10-22T19:39:51.197Z,10.19
2022-10-22T19:42:17.806Z,10.12
2022-10-22T19:44:44.322Z,10.00
2022-10-22T19:47:11.966Z,9.85
2022-10-22T19:49:38.617Z,9.82
2022-10-22T19:52:05.532Z,9.83
2022-10-22T19:54:32.133Z,9.72
2022-10-22T19:56:58.800Z,9.69
2022-10-22T19:59:29.799Z,9.69
2022-10-22T20:01:58.070Z,9.63
2022-10-22T20:04:26.772Z,9.61
2022-10-22T20:06:53.973Z,9.55
2022-10-22T20:09:20.582Z,9.44
2022-10-22T20:11:47.155Z,9.32
2022-10-22T20:14:14.262Z,9.43
2022-10-22T20:16:41.499Z,9.39
2022-10-22T20:19:08.777Z,9.36
2022-10-22T20:21:35.477Z,9.48
2022-10-22T20:24:02.132Z,9.61
2022-10-22T20:26:29.172Z,9.64
2022-10-22T20:28:57.132Z,9.62
2022-10-22T20:31:27.081Z,9.58
2022-10-22T20:33:57.562Z,9.55
2022-10-22T20:36:24.691Z,9.52
2022-10-22T20:38:51.646Z,9.48
2022-10-22T20:41:22.941Z,9.42
2022-10-22T20:43:51.609Z,9.36
2022-10-22T20:46:21.124Z,9.33
2022-10-22T20:48:47.689Z,9.30
2022-10-22T20:51:14.307Z,9.30
2022-10-22T20:53:41.942Z,9.31
2022-10-22T20:56:08.603Z,9.34
2022-10-22T20:58:35.839Z,9.40
2022-10-22T21:01:09.748Z,9.42
2022-10-22T21:03:39.627Z,9.55
2022-10-22T21:06:06.606Z,9.57
2022-10-22T21:08:33.196Z,9.49
2022-10-22T21:10:59.893Z,9.42
2022-10-22T21:13:26.448Z,9.31
2022-10-22T21:15:52.972Z,9.33
2022-10-22T21:18:19.497Z,9.22
2022-10-22T21:20:46.031Z,9.17
2022-10-22T21:23:12.574Z,9.20
2022-10-22T21:25:41.982Z,9.18
2022-10-22T21:28:10.883Z,9.17
2022-10-22T21:30:44.023Z,9.15
2022-10-22T21:33:10.628Z,9.22
2022-10-22T21:35:37.172Z,8.97
2022-10-22T21:38:05.203Z,8.95
2022-10-22T21:40:31.750Z,8.89
2022-10-22T21:42:58.290Z,8.84
2022-10-22T21:45:24.842Z,8.73
2022-10-22T21:47:51.374Z,8.67
2022-10-22T21:50:17.985Z,8.56
2022-10-22T21:52:44.491Z,8.48
2022-10-22T21:55:11.051Z,8.43
2022-10-22T21:57:37.654Z,8.30
2022-10-22T22:00:07.231Z,8.27
2022-10-22T22:02:35.373Z,8.43
2022-10-22T22:05:01.917Z,8.30
2022-10-22T22:07:28.550Z,8.18
2022-10-22T22:09:55.164Z,8.21
2022-10-22T22:12:21.767Z,8.23
2022-10-22T22:14:48.381Z,8.16
2022-10-22T22:17:16.509Z,8.20
2022-10-22T22:19:43.120Z,8.34
2022-10-22T22:22:09.886Z,8.48
2022-10-22T22:24:39.746Z,8.63
2022-10-22T22:27:06.372Z,8.62
2022-10-22T22:29:35.589Z,8.69
2022-10-22T22:32:02.279Z,8.60
2022-10-22T22:34:28.822Z,8.54
2022-10-22T22:36:55.349Z,8.43
2022-10-22T22:39:23.511Z,8.40
2022-10-22T22:41:50.167Z,8.34
2022-10-22T22:44:16.967Z,8.29
2022-10-22T22:46:43.993Z,8.21
2022-10-22T22:49:12.195Z,8.12
2022-10-22T22:51:38.826Z,7.98
2022-10-22T22:54:06.155Z,7.94
2022-10-22T22:59:31.385Z,7.84
2022-10-22T23:02:00.704Z,7.78
2022-10-22T23:04:29.455Z,7.63
2022-10-22T23:06:56.506Z,7.56
2022-10-22T23:09:23.156Z,7.48
2022-10-22T23:11:50.740Z,7.48
2022-10-22T23:14:19.131Z,7.41
2022-10-22T23:16:49.098Z,7.41
2022-10-22T23:19:18.469Z,7.48
2022-10-22T23:21:48.643Z,7.72
2022-10-22T23:24:19.207Z,8.19
2022-10-22T23:26:54.059Z,8.57
2022-10-22T23:29:28.157Z,8.67
2022-10-22T23:31:55.739Z,8.94
2022-10-22T23:34:24.832Z,8.93
2022-10-22T23:36:52.744Z,9.21
2022-10-22T23:39:22.835Z,9.29
2022-10-22T23:41:49.903Z,9.34
2022-10-22T23:44:17.043Z,9.45
2022-10-22T23:46:43.848Z,9.54
2022-10-22T23:49:11.696Z,9.51
2022-10-22T23:51:39.549Z,9.51
2022-10-22T23:54:10.706Z,9.49
2022-10-22T23:56:37.471Z,9.47
2022-10-22T23:59:04.487Z,9.40
